sensor_id;sensor_type;location;lat;lon;timestamp;temperature;humidity
18252;DHT22;26917;52.328;20.878;2022-12-07T00:53:39;0.70;99.90
18252;DHT22;26917;52.328;20.878;2022-12-07T00:56:47;0.60;99.90
18252;DHT22;26917;52.328;20.878;2022-12-07T01:02:18;0.70;99.90
18252;DHT22;26917;52.328;20.878;2022-12-07T01:05:36;0.70;99.90
18252;DHT22;26917;52.328;20.878;2022-12-07T01:08:06;0.60;99.90
18252;DHT22;26917;52.328;20.878;2022-12-07T01:11:26;0.70;99.90
18252;DHT22;26917;52.328;20.878;2022-12-07T01:13:44;0.70;99.90
18252;DHT22;26917;52.328;20.878;2022-12-07T01:16:32;0.70;99.90
18252;DHT22;26917;52.328;20.878;2022-12-07T01:19:01;0.70;99.90
18252;DHT22;26917;52.328;20.878;2022-12-07T01:21:33;0.70;99.90
18252;DHT22;26917;52.328;20.878;2022-12-07T01:24:06;0.80;99.90
18252;DHT22;26917;52.328;20.878;2022-12-07T01:26:37;0.70;99.90
18252;DHT22;26917;52.328;20.878;2022-12-07T01:29:07;0.70;99.90
18252;DHT22;26917;52.328;20.878;2022-12-07T01:31:38;0.80;99.90
18252;DHT22;26917;52.328;20.878;2022-12-07T01:34:10;0.80;99.90
18252;DHT22;26917;52.328;20.878;2022-12-07T01:36:39;0.80;99.90
18252;DHT22;26917;52.328;20.878;2022-12-07T01:39:09;0.90;99.90
18252;DHT22;26917;52.328;20.878;2022-12-07T01:41:40;0.90;99.90
18252;DHT22;26917;52.328;20.878;2022-12-07T01:44:14;0.90;99.90
18252;DHT22;26917;52.328;20.878;2022-12-07T01:46:44;0.80;99.90
18252;DHT22;26917;52.328;20.878;2022-12-07T01:49:22;0.80;99.90
18252;DHT22;26917;52.328;20.878;2022-12-07T01:52:01;0.80;99.90
18252;DHT22;26917;52.328;20.878;2022-12-07T01:54:30;0.90;99.90
18252;DHT22;26917;52.328;20.878;2022-12-07T01:57:01;0.90;99.90
18252;DHT22;26917;52.328;20.878;2022-12-07T01:59:30;1.10;99.90
18252;DHT22;26917;52.328;20.878;2022-12-07T02:01:59;0.90;99.90
18252;DHT22;26917;52.328;20.878;2022-12-07T02:04:30;0.90;99.90
18252;DHT22;26917;52.328;20.878;2022-12-07T02:06:59;0.90;99.90
18252;DHT22;26917;52.328;20.878;2022-12-07T02:09:28;1.00;99.90
18252;DHT22;26917;52.328;20.878;2022-12-07T02:11:56;0.90;99.90
18252;DHT22;26917;52.328;20.878;2022-12-07T02:14:27;0.90;99.90
18252;DHT22;26917;52.328;20.878;2022-12-07T02:17:07;1.00;99.90
18252;DHT22;26917;52.328;20.878;2022-12-07T02:23:12;1.00;99.90
18252;DHT22;26917;52.328;20.878;2022-12-07T02:25:57;0.90;99.90
18252;DHT22;26917;52.328;20.878;2022-12-07T02:28:33;0.90;99.90
18252;DHT22;26917;52.328;20.878;2022-12-07T02:34:18;0.90;99.90
18252;DHT22;26917;52.328;20.878;2022-12-07T02:36:52;0.90;99.90
18252;DHT22;26917;52.328;20.878;2022-12-07T02:39:27;0.90;99.90
18252;DHT22;26917;52.328;20.878;2022-12-07T02:41:59;1.00;99.90
18252;DHT22;26917;52.328;20.878;2022-12-07T02:44:30;1.00;99.90
18252;DHT22;26917;52.328;20.878;2022-12-07T02:47:03;1.00;99.90
18252;DHT22;26917;52.328;20.878;2022-12-07T02:49:35;1.00;99.90
18252;DHT22;26917;52.328;20.878;2022-12-07T02:52:04;1.00;99.90
18252;DHT22;26917;52.328;20.878;2022-12-07T02:54:33;1.20;99.90
18252;DHT22;26917;52.328;20.878;2022-12-07T02:57:07;1.00;99.90
18252;DHT22;26917;52.328;20.878;2022-12-07T02:59:48;1.00;99.90
18252;DHT22;26917;52.328;20.878;2022-12-07T03:02:25;1.00;99.90
18252;DHT22;26917;52.328;20.878;2022-12-07T03:05:09;1.00;99.90
18252;DHT22;26917;52.328;20.878;2022-12-07T03:07:48;1.00;99.90
18252;DHT22;26917;52.328;20.878;2022-12-07T03:10:22;1.10;99.90
18252;DHT22;26917;52.328;20.878;2022-12-07T03:13:01;1.00;99.90
18252;DHT22;26917;52.328;20.878;2022-12-07T03:15:34;1.10;99.90
18252;DHT22;26917;52.328;20.878;2022-12-07T03:18:08;1.00;99.90
18252;DHT22;26917;52.328;20.878;2022-12-07T03:20:39;1.10;99.90
18252;DHT22;26917;52.328;20.878;2022-12-07T03:23:11;1.10;99.90
18252;DHT22;26917;52.328;20.878;2022-12-07T03:25:46;1.10;99.90
18252;DHT22;26917;52.328;20.878;2022-12-07T03:28:18;1.00;99.90
18252;DHT22;26917;52.328;20.878;2022-12-07T03:30:50;1.10;99.90
18252;DHT22;26917;52.328;20.878;2022-12-07T03:33:23;1.20;99.90
18252;DHT22;26917;52.328;20.878;2022-12-07T03:36:00;1.10;99.90
18252;DHT22;26917;52.328;20.878;2022-12-07T03:38:33;1.10;99.90
18252;DHT22;26917;52.328;20.878;2022-12-07T03:41:06;1.10;99.90
18252;DHT22;26917;52.328;20.878;2022-12-07T03:43:38;1.10;99.90
18252;DHT22;26917;52.328;20.878;2022-12-07T03:46:14;1.20;99.90
18252;DHT22;26917;52.328;20.878;2022-12-07T03:48:56;1.10;99.90
18252;DHT22;26917;52.328;20.878;2022-12-07T03:51:32;1.30;99.90
18252;DHT22;26917;52.328;20.878;2022-12-07T03:54:09;1.10;99.90
18252;DHT22;26917;52.328;20.878;2022-12-07T03:56:40;1.10;99.90
18252;DHT22;26917;52.328;20.878;2022-12-07T03:59:09;1.20;99.90
18252;DHT22;26917;52.328;20.878;2022-12-07T04:01:41;1.10;99.90
18252;DHT22;26917;52.328;20.878;2022-12-07T04:04:11;1.10;99.90
18252;DHT22;26917;52.328;20.878;2022-12-07T04:06:41;1.10;99.90
18252;DHT22;26917;52.328;20.878;2022-12-07T04:09:09;1.10;99.90
18252;DHT22;26917;52.328;20.878;2022-12-07T04:11:37;1.10;99.90
18252;DHT22;26917;52.328;20.878;2022-12-07T04:14:06;1.20;99.90
18252;DHT22;26917;52.328;20.878;2022-12-07T04:16:47;1.20;99.90
18252;DHT22;26917;52.328;20.878;2022-12-07T04:19:17;1.10;99.90
18252;DHT22;26917;52.328;20.878;2022-12-07T04:21:48;1.30;99.90
18252;DHT22;26917;52.328;20.878;2022-12-07T04:24:17;1.10;99.90
18252;DHT22;26917;52.328;20.878;2022-12-07T04:26:46;1.10;99.90
18252;DHT22;26917;52.328;20.878;2022-12-07T04:29:15;1.10;99.90
18252;DHT22;26917;52.328;20.878;2022-12-07T04:31:44;1.10;99.90
18252;DHT22;26917;52.328;20.878;2022-12-07T04:34:13;1.10;99.90
18252;DHT22;26917;52.328;20.878;2022-12-07T04:36:42;1.10;99.90
18252;DHT22;26917;52.328;20.878;2022-12-07T04:39:19;1.10;99.90
18252;DHT22;26917;52.328;20.878;2022-12-07T04:58:41;1.00;99.90
18252;DHT22;26917;52.328;20.878;2022-12-07T05:01:24;1.00;99.90
18252;DHT22;26917;52.328;20.878;2022-12-07T05:03:53;1.10;99.90
18252;DHT22;26917;52.328;20.878;2022-12-07T05:06:21;1.00;99.90
18252;DHT22;26917;52.328;20.878;2022-12-07T05:08:50;1.00;99.90
18252;DHT22;26917;52.328;20.878;2022-12-07T05:11:18;1.00;99.90
18252;DHT22;26917;52.328;20.878;2022-12-07T05:14:08;1.00;99.90
18252;DHT22;26917;52.328;20.878;2022-12-07T05:16:37;1.00;99.90
18252;DHT22;26917;52.328;20.878;2022-12-07T05:19:07;1.00;99.90
18252;DHT22;26917;52.328;20.878;2022-12-07T05:21:35;1.00;99.90
18252;DHT22;26917;52.328;20.878;2022-12-07T05:24:05;1.30;99.90
18252;DHT22;26917;52.328;20.878;2022-12-07T05:26:36;0.90;99.90
18252;DHT22;26917;52.328;20.878;2022-12-07T05:29:06;0.90;99.90
18252;DHT22;26917;52.328;20.878;2022-12-07T05:31:34;0.90;99.90
18252;DHT22;26917;52.328;20.878;2022-12-07T05:34:03;0.90;99.90
18252;DHT22;26917;52.328;20.878;2022-12-07T05:36:31;0.90;99.90
18252;DHT22;26917;52.328;20.878;2022-12-07T05:39:00;0.90;99.90
18252;DHT22;26917;52.328;20.878;2022-12-07T05:41:28;0.90;99.90
18252;DHT22;26917;52.328;20.878;2022-12-07T05:44:16;0.90;99.90
18252;DHT22;26917;52.328;20.878;2022-12-07T05:46:45;0.90;99.90
18252;DHT22;26917;52.328;20.878;2022-12-07T05:49:13;0.90;99.90
18252;DHT22;26917;52.328;20.878;2022-12-07T05:51:42;0.90;99.90
18252;DHT22;26917;52.328;20.878;2022-12-07T05:54:11;0.80;99.90
18252;DHT22;26917;52.328;20.878;2022-12-07T05:56:39;0.80;99.90
18252;DHT22;26917;52.328;20.878;2022-12-07T05:59:08;0.70;99.90
18252;DHT22;26917;52.328;20.878;2022-12-07T06:01:55;0.70;99.90
18252;DHT22;26917;52.328;20.878;2022-12-07T06:04:25;0.70;99.90
18252;DHT22;26917;52.328;20.878;2022-12-07T06:06:54;0.80;99.90
18252;DHT22;26917;52.328;20.878;2022-12-07T06:09:23;0.60;99.90
18252;DHT22;26917;52.328;20.878;2022-12-07T06:11:54;0.70;99.90
18252;DHT22;26917;52.328;20.878;2022-12-07T06:14:40;0.60;99.90
18252;DHT22;26917;52.328;20.878;2022-12-07T06:17:33;0.60;99.90
18252;DHT22;26917;52.328;20.878;2022-12-07T06:20:02;0.60;99.90
18252;DHT22;26917;52.328;20.878;2022-12-07T06:22:33;0.60;99.90
18252;DHT22;26917;52.328;20.878;2022-12-07T06:25:01;0.60;99.90
18252;DHT22;26917;52.328;20.878;2022-12-07T06:27:35;0.60;99.90
18252;DHT22;26917;52.328;20.878;2022-12-07T06:30:07;0.60;99.90
18252;DHT22;26917;52.328;20.878;2022-12-07T06:32:40;0.50;99.90
18252;DHT22;26917;52.328;20.878;2022-12-07T06:35:08;0.40;99.90
18252;DHT22;26917;52.328;20.878;2022-12-07T06:37:37;0.40;99.90
18252;DHT22;26917;52.328;20.878;2022-12-07T06:40:09;0.50;99.90
18252;DHT22;26917;52.328;20.878;2022-12-07T06:42:39;0.50;99.90
18252;DHT22;26917;52.328;20.878;2022-12-07T06:45:08;0.50;99.90
18252;DHT22;26917;52.328;20.878;2022-12-07T06:51:00;0.40;99.90
18252;DHT22;26917;52.328;20.878;2022-12-07T06:53:29;0.40;99.90
18252;DHT22;26917;52.328;20.878;2022-12-07T06:55:57;0.40;99.90
18252;DHT22;26917;52.328;20.878;2022-12-07T06:58:26;0.60;99.90
18252;DHT22;26917;52.328;20.878;2022-12-07T07:00:54;0.40;99.90
18252;DHT22;26917;52.328;20.878;2022-12-07T07:03:23;0.40;99.90
18252;DHT22;26917;52.328;20.878;2022-12-07T07:05:52;0.40;99.90
18252;DHT22;26917;52.328;20.878;2022-12-07T07:08:23;0.30;99.90
18252;DHT22;26917;52.328;20.878;2022-12-07T07:10:52;0.30;99.90
18252;DHT22;26917;52.328;20.878;2022-12-07T07:13:20;0.40;99.90
18252;DHT22;26917;52.328;20.878;2022-12-07T07:15:49;0.40;99.90
18252;DHT22;26917;52.328;20.878;2022-12-07T07:18:17;0.40;99.90
18252;DHT22;26917;52.328;20.878;2022-12-07T07:20:45;0.40;99.90
18252;DHT22;26917;52.328;20.878;2022-12-07T07:23:14;0.40;99.90
18252;DHT22;26917;52.328;20.878;2022-12-07T07:25:44;0.50;99.90
18252;DHT22;26917;52.328;20.878;2022-12-07T07:28:13;0.40;99.90
18252;DHT22;26917;52.328;20.878;2022-12-07T07:30:42;0.40;99.90
18252;DHT22;26917;52.328;20.878;2022-12-07T07:33:11;0.50;99.90
18252;DHT22;26917;52.328;20.878;2022-12-07T07:35:44;0.30;99.90
18252;DHT22;26917;52.328;20.878;2022-12-07T07:38:13;0.60;99.90
18252;DHT22;26917;52.328;20.878;2022-12-07T07:40:44;0.50;99.90
18252;DHT22;26917;52.328;20.878;2022-12-07T07:43:14;0.50;99.90
18252;DHT22;26917;52.328;20.878;2022-12-07T07:45:45;0.60;99.90
18252;DHT22;26917;52.328;20.878;2022-12-07T07:48:15;0.60;99.90
18252;DHT22;26917;52.328;20.878;2022-12-07T07:50:44;0.50;99.90
18252;DHT22;26917;52.328;20.878;2022-12-07T07:53:21;0.60;99.90
18252;DHT22;26917;52.328;20.878;2022-12-07T07:55:55;0.80;99.90
18252;DHT22;26917;52.328;20.878;2022-12-07T07:58:24;0.60;99.90
18252;DHT22;26917;52.328;20.878;2022-12-07T08:01:02;0.40;99.90
18252;DHT22;26917;52.328;20.878;2022-12-07T08:03:31;0.50;99.90
18252;DHT22;26917;52.328;20.878;2022-12-07T08:06:01;0.60;99.90
18252;DHT22;26917;52.328;20.878;2022-12-07T08:08:30;0.60;99.90
18252;DHT22;26917;52.328;20.878;2022-12-07T08:11:04;0.60;99.90
18252;DHT22;26917;52.328;20.878;2022-12-07T08:13:36;0.60;99.90
18252;DHT22;26917;52.328;20.878;2022-12-07T08:16:06;0.60;99.90
18252;DHT22;26917;52.328;20.878;2022-12-07T08:18:36;0.70;99.90
18252;DHT22;26917;52.328;20.878;2022-12-07T08:21:07;0.60;99.90
18252;DHT22;26917;52.328;20.878;2022-12-07T08:23:35;0.70;99.90
18252;DHT22;26917;52.328;20.878;2022-12-07T08:26:09;0.70;99.90
18252;DHT22;26917;52.328;20.878;2022-12-07T08:28:37;0.80;99.90
18252;DHT22;26917;52.328;20.878;2022-12-07T08:31:08;0.80;99.90
18252;DHT22;26917;52.328;20.878;2022-12-07T08:33:38;0.80;99.90
18252;DHT22;26917;52.328;20.878;2022-12-07T08:36:08;0.90;99.90
18252;DHT22;26917;52.328;20.878;2022-12-07T08:38:40;0.90;99.90
18252;DHT22;26917;52.328;20.878;2022-12-07T08:41:31;0.90;99.90
18252;DHT22;26917;52.328;20.878;2022-12-07T08:43:59;0.90;99.90
18252;DHT22;26917;52.328;20.878;2022-12-07T08:46:32;0.90;99.90
18252;DHT22;26917;52.328;20.878;2022-12-07T08:49:06;1.00;99.90
18252;DHT22;26917;52.328;20.878;2022-12-07T08:51:39;1.10;99.90
18252;DHT22;26917;52.328;20.878;2022-12-07T08:54:11;1.10;99.90
18252;DHT22;26917;52.328;20.878;2022-12-07T08:56:44;1.10;99.90
18252;DHT22;26917;52.328;20.878;2022-12-07T08:59:15;1.20;99.90
18252;DHT22;26917;52.328;20.878;2022-12-07T09:01:44;1.30;99.90
18252;DHT22;26917;52.328;20.878;2022-12-07T09:04:13;1.50;99.90
18252;DHT22;26917;52.328;20.878;2022-12-07T09:07:16;1.30;99.90
18252;DHT22;26917;52.328;20.878;2022-12-07T09:09:44;1.40;99.90
18252;DHT22;26917;52.328;20.878;2022-12-07T09:12:14;1.30;99.90
18252;DHT22;26917;52.328;20.878;2022-12-07T09:14:42;1.40;99.90
18252;DHT22;26917;52.328;20.878;2022-12-07T09:17:15;1.50;99.90
18252;DHT22;26917;52.328;20.878;2022-12-07T09:19:46;1.40;99.90
18252;DHT22;26917;52.328;20.878;2022-12-07T09:22:17;1.40;99.90
18252;DHT22;26917;52.328;20.878;2022-12-07T09:24:47;1.50;99.90
18252;DHT22;26917;52.328;20.878;2022-12-07T09:27:17;1.50;99.90
18252;DHT22;26917;52.328;20.878;2022-12-07T09:29:47;1.50;99.90
18252;DHT22;26917;52.328;20.878;2022-12-07T09:32:15;1.50;99.90
18252;DHT22;26917;52.328;20.878;2022-12-07T09:34:44;1.60;99.90
18252;DHT22;26917;52.328;20.878;2022-12-07T09:37:15;1.60;99.90
18252;DHT22;26917;52.328;20.878;2022-12-07T09:39:44;1.60;99.90
18252;DHT22;26917;52.328;20.878;2022-12-07T09:42:26;1.70;99.90
18252;DHT22;26917;52.328;20.878;2022-12-07T09:44:56;1.70;99.90
18252;DHT22;26917;52.328;20.878;2022-12-07T09:47:26;1.70;99.90
18252;DHT22;26917;52.328;20.878;2022-12-07T09:50:03;1.70;99.90
18252;DHT22;26917;52.328;20.878;2022-12-07T09:52:32;1.70;99.90
18252;DHT22;26917;52.328;20.878;2022-12-07T09:55:10;1.70;99.90
18252;DHT22;26917;52.328;20.878;2022-12-07T09:57:43;1.70;99.90
18252;DHT22;26917;52.328;20.878;2022-12-07T10:00:14;1.70;99.90
18252;DHT22;26917;52.328;20.878;2022-12-07T10:02:44;1.70;99.90
18252;DHT22;26917;52.328;20.878;2022-12-07T10:05:35;1.70;99.90
18252;DHT22;26917;52.328;20.878;2022-12-07T10:08:05;1.70;99.90
18252;DHT22;26917;52.328;20.878;2022-12-07T10:10:35;1.70;99.90
18252;DHT22;26917;52.328;20.878;2022-12-07T10:13:09;1.80;99.90
18252;DHT22;26917;52.328;20.878;2022-12-07T10:15:47;1.80;99.90
18252;DHT22;26917;52.328;20.878;2022-12-07T10:18:28;1.60;99.90
18252;DHT22;26917;52.328;20.878;2022-12-07T10:21:11;1.60;99.90
18252;DHT22;26917;52.328;20.878;2022-12-07T10:23:58;1.60;99.90
18252;DHT22;26917;52.328;20.878;2022-12-07T10:26:30;1.70;99.90
18252;DHT22;26917;52.328;20.878;2022-12-07T10:29:02;1.60;99.90
18252;DHT22;26917;52.328;20.878;2022-12-07T10:31:32;1.60;99.90
18252;DHT22;26917;52.328;20.878;2022-12-07T10:34:12;1.90;99.90
18252;DHT22;26917;52.328;20.878;2022-12-07T10:36:43;1.60;99.90
18252;DHT22;26917;52.328;20.878;2022-12-07T10:39:14;1.60;99.90
18252;DHT22;26917;52.328;20.878;2022-12-07T10:42:03;1.70;99.90
18252;DHT22;26917;52.328;20.878;2022-12-07T10:44:40;1.70;99.90
18252;DHT22;26917;52.328;20.878;2022-12-07T10:47:25;1.70;99.90
18252;DHT22;26917;52.328;20.878;2022-12-07T10:53:31;1.80;99.90
18252;DHT22;26917;52.328;20.878;2022-12-07T10:56:29;1.40;99.90
18252;DHT22;26917;52.328;20.878;2022-12-07T11:02:35;1.90;99.90
18252;DHT22;26917;52.328;20.878;2022-12-07T11:05:38;2.10;99.90
18252;DHT22;26917;52.328;20.878;2022-12-07T11:08:55;1.90;99.90
18252;DHT22;26917;52.328;20.878;2022-12-07T11:11:37;1.90;99.90
18252;DHT22;26917;52.328;20.878;2022-12-07T11:14:22;2.00;99.90
18252;DHT22;26917;52.328;20.878;2022-12-07T11:16:57;2.10;99.90
18252;DHT22;26917;52.328;20.878;2022-12-07T11:20:12;2.10;99.90
18252;DHT22;26917;52.328;20.878;2022-12-07T11:23:08;2.50;99.90
18252;DHT22;26917;52.328;20.878;2022-12-07T11:26:07;2.10;99.90
18252;DHT22;26917;52.328;20.878;2022-12-07T11:29:06;2.50;99.90
18252;DHT22;26917;52.328;20.878;2022-12-07T11:44:45;2.20;99.90
18252;DHT22;26917;52.328;20.878;2022-12-07T11:47:51;2.30;99.90
18252;DHT22;26917;52.328;20.878;2022-12-07T11:50:58;2.00;99.90
18252;DHT22;26917;52.328;20.878;2022-12-07T11:57:44;2.40;99.90
18252;DHT22;26917;52.328;20.878;2022-12-07T12:00:51;2.50;99.90
18252;DHT22;26917;52.328;20.878;2022-12-07T12:04:02;2.50;99.90
18252;DHT22;26917;52.328;20.878;2022-12-07T12:07:10;2.60;99.90
18252;DHT22;26917;52.328;20.878;2022-12-07T12:10:17;2.80;99.90
18252;DHT22;26917;52.328;20.878;2022-12-07T12:19:33;2.60;99.90
18252;DHT22;26917;52.328;20.878;2022-12-07T12:22:12;2.60;99.90
18252;DHT22;26917;52.328;20.878;2022-12-07T12:24:48;2.50;99.90
18252;DHT22;26917;52.328;20.878;2022-12-07T12:27:23;2.40;99.90
18252;DHT22;26917;52.328;20.878;2022-12-07T12:29:58;2.70;99.90
18252;DHT22;26917;52.328;20.878;2022-12-07T12:32:36;2.40;99.90
18252;DHT22;26917;52.328;20.878;2022-12-07T12:35:29;2.50;99.90
18252;DHT22;26917;52.328;20.878;2022-12-07T12:38:21;2.60;99.90
18252;DHT22;26917;52.328;20.878;2022-12-07T12:40:54;2.60;99.90
18252;DHT22;26917;52.328;20.878;2022-12-07T12:43:41;2.50;99.90
18252;DHT22;26917;52.328;20.878;2022-12-07T12:46:38;2.50;99.90
18252;DHT22;26917;52.328;20.878;2022-12-07T12:49:43;2.70;99.90
18252;DHT22;26917;52.328;20.878;2022-12-07T12:52:53;2.40;99.90
18252;DHT22;26917;52.328;20.878;2022-12-07T12:58:46;2.50;99.90
18252;DHT22;26917;52.328;20.878;2022-12-07T13:01:43;2.40;99.90
18252;DHT22;26917;52.328;20.878;2022-12-07T13:04:25;2.30;99.90
18252;DHT22;26917;52.328;20.878;2022-12-07T13:06:55;2.30;99.90
18252;DHT22;26917;52.328;20.878;2022-12-07T13:09:27;2.60;99.90
18252;DHT22;26917;52.328;20.878;2022-12-07T13:12:00;2.30;99.90
18252;DHT22;26917;52.328;20.878;2022-12-07T13:14:51;2.60;99.90
18252;DHT22;26917;52.328;20.878;2022-12-07T13:18:00;2.20;99.90
18252;DHT22;26917;52.328;20.878;2022-12-07T13:20:51;2.20;99.90
18252;DHT22;26917;52.328;20.878;2022-12-07T13:23:25;2.60;99.90
18252;DHT22;26917;52.328;20.878;2022-12-07T13:26:13;2.10;99.90
18252;DHT22;26917;52.328;20.878;2022-12-07T13:28:46;2.10;99.90
18252;DHT22;26917;52.328;20.878;2022-12-07T13:31:26;2.00;99.90
18252;DHT22;26917;52.328;20.878;2022-12-07T13:33:59;2.00;99.90
18252;DHT22;26917;52.328;20.878;2022-12-07T13:36:30;2.00;99.90
18252;DHT22;26917;52.328;20.878;2022-12-07T13:39:18;1.90;99.90
18252;DHT22;26917;52.328;20.878;2022-12-07T13:41:51;1.90;99.90
18252;DHT22;26917;52.328;20.878;2022-12-07T13:44:21;2.10;99.90
18252;DHT22;26917;52.328;20.878;2022-12-07T13:46:59;1.90;99.90
18252;DHT22;26917;52.328;20.878;2022-12-07T13:49:29;1.90;99.90
18252;DHT22;26917;52.328;20.878;2022-12-07T13:52:14;1.90;99.90
18252;DHT22;26917;52.328;20.878;2022-12-07T13:54:48;1.90;99.90
18252;DHT22;26917;52.328;20.878;2022-12-07T13:57:19;1.80;99.90
18252;DHT22;26917;52.328;20.878;2022-12-07T13:59:47;2.10;99.90
18252;DHT22;26917;52.328;20.878;2022-12-07T14:02:25;1.80;99.90
18252;DHT22;26917;52.328;20.878;2022-12-07T14:05:09;1.90;99.90
18252;DHT22;26917;52.328;20.878;2022-12-07T14:07:52;1.90;99.90
18252;DHT22;26917;52.328;20.878;2022-12-07T14:10:26;1.70;99.90
18252;DHT22;26917;52.328;20.878;2022-12-07T14:13:01;1.60;99.90
18252;DHT22;26917;52.328;20.878;2022-12-07T14:15:32;1.70;99.90
18252;DHT22;26917;52.328;20.878;2022-12-07T14:18:02;1.60;99.90
18252;DHT22;26917;52.328;20.878;2022-12-07T14:20:35;1.60;99.90
18252;DHT22;26917;52.328;20.878;2022-12-07T14:23:04;1.50;99.90
18252;DHT22;26917;52.328;20.878;2022-12-07T14:25:45;1.40;99.90
18252;DHT22;26917;52.328;20.878;2022-12-07T14:28:31;1.40;99.90
18252;DHT22;26917;52.328;20.878;2022-12-07T14:31:11;1.40;99.90
18252;DHT22;26917;52.328;20.878;2022-12-07T14:33:49;1.50;99.90
18252;DHT22;26917;52.328;20.878;2022-12-07T14:36:18;1.60;99.90
18252;DHT22;26917;52.328;20.878;2022-12-07T14:38:50;1.50;99.90
18252;DHT22;26917;52.328;20.878;2022-12-07T14:41:29;1.50;99.90
18252;DHT22;26917;52.328;20.878;2022-12-07T14:44:17;1.20;99.90
18252;DHT22;26917;52.328;20.878;2022-12-07T14:46:54;1.20;99.90
18252;DHT22;26917;52.328;20.878;2022-12-07T14:49:47;1.20;99.90
18252;DHT22;26917;52.328;20.878;2022-12-07T14:52:43;1.10;99.90
18252;DHT22;26917;52.328;20.878;2022-12-07T14:56:11;1.00;99.90
18252;DHT22;26917;52.328;20.878;2022-12-07T14:58:58;1.00;99.90
18252;DHT22;26917;52.328;20.878;2022-12-07T15:08:28;0.70;99.90
18252;DHT22;26917;52.328;20.878;2022-12-07T15:20:37;0.70;99.90
18252;DHT22;26917;52.328;20.878;2022-12-07T15:23:52;0.70;99.90
18252;DHT22;26917;52.328;20.878;2022-12-07T15:27:12;1.00;99.90
18252;DHT22;26917;52.328;20.878;2022-12-07T15:34:41;0.90;99.90
18252;DHT22;26917;52.328;20.878;2022-12-07T15:47:02;0.80;99.90
18252;DHT22;26917;52.328;20.878;2022-12-07T15:50:26;0.90;99.90
18252;DHT22;26917;52.328;20.878;2022-12-07T15:53:58;0.90;99.90
18252;DHT22;26917;52.328;20.878;2022-12-07T15:56:58;0.90;99.90
18252;DHT22;26917;52.328;20.878;2022-12-07T16:03:52;0.90;99.90
18252;DHT22;26917;52.328;20.878;2022-12-07T16:06:24;1.00;99.90
18252;DHT22;26917;52.328;20.878;2022-12-07T16:12:09;1.00;99.90
18252;DHT22;26917;52.328;20.878;2022-12-07T16:15:34;1.00;99.90
18252;DHT22;26917;52.328;20.878;2022-12-07T16:18:27;1.10;99.90
18252;DHT22;26917;52.328;20.878;2022-12-07T16:24:48;1.10;99.90
18252;DHT22;26917;52.328;20.878;2022-12-07T16:27:47;1.70;99.90
18252;DHT22;26917;52.328;20.878;2022-12-07T16:30:34;1.20;99.90
18252;DHT22;26917;52.328;20.878;2022-12-07T16:33:06;1.20;99.90
18252;DHT22;26917;52.328;20.878;2022-12-07T16:35:39;1.30;99.90
18252;DHT22;26917;52.328;20.878;2022-12-07T16:38:14;1.30;99.90
18252;DHT22;26917;52.328;20.878;2022-12-07T16:40:48;1.50;99.90
18252;DHT22;26917;52.328;20.878;2022-12-07T16:43:24;1.20;99.90
18252;DHT22;26917;52.328;20.878;2022-12-07T16:45:54;1.20;99.90
18252;DHT22;26917;52.328;20.878;2022-12-07T16:48:27;1.40;99.90
18252;DHT22;26917;52.328;20.878;2022-12-07T16:51:03;1.20;99.90
18252;DHT22;26917;52.328;20.878;2022-12-07T16:53:36;1.80;99.90
18252;DHT22;26917;52.328;20.878;2022-12-07T16:56:29;1.50;99.90
18252;DHT22;26917;52.328;20.878;2022-12-07T16:59:00;1.60;99.90
18252;DHT22;26917;52.328;20.878;2022-12-07T17:01:29;1.40;99.90
18252;DHT22;26917;52.328;20.878;2022-12-07T17:04:01;1.30;99.90
18252;DHT22;26917;52.328;20.878;2022-12-07T17:06:31;1.40;99.90
18252;DHT22;26917;52.328;20.878;2022-12-07T17:09:22;1.70;99.90
18252;DHT22;26917;52.328;20.878;2022-12-07T17:12:03;1.40;99.90
18252;DHT22;26917;52.328;20.878;2022-12-07T17:14:33;1.40;99.90
18252;DHT22;26917;52.328;20.878;2022-12-07T17:17:39;1.70;99.90
18252;DHT22;26917;52.328;20.878;2022-12-07T17:20:34;1.40;99.90
18252;DHT22;26917;52.328;20.878;2022-12-07T17:23:18;1.40;99.90
18252;DHT22;26917;52.328;20.878;2022-12-07T17:25:55;1.50;99.90
18252;DHT22;26917;52.328;20.878;2022-12-07T17:36:24;1.40;99.90
18252;DHT22;26917;52.328;20.878;2022-12-07T17:38:53;2.60;99.90
18252;DHT22;26917;52.328;20.878;2022-12-07T17:41:29;1.50;99.90
18252;DHT22;26917;52.328;20.878;2022-12-07T17:48:12;1.40;99.90
18252;DHT22;26917;52.328;20.878;2022-12-07T17:50:45;1.40;99.90
18252;DHT22;26917;52.328;20.878;2022-12-07T17:56:27;1.20;99.90
18252;DHT22;26917;52.328;20.878;2022-12-07T17:59:15;1.20;99.90
18252;DHT22;26917;52.328;20.878;2022-12-07T18:02:21;1.20;99.90
18252;DHT22;26917;52.328;20.878;2022-12-07T18:05:26;1.80;99.90
18252;DHT22;26917;52.328;20.878;2022-12-07T18:08:52;1.30;99.90
18252;DHT22;26917;52.328;20.878;2022-12-07T18:12:00;1.20;99.90
18252;DHT22;26917;52.328;20.878;2022-12-07T18:14:33;1.20;99.90
18252;DHT22;26917;52.328;20.878;2022-12-07T18:17:04;1.30;99.90
18252;DHT22;26917;52.328;20.878;2022-12-07T18:20:07;1.30;99.90
18252;DHT22;26917;52.328;20.878;2022-12-07T18:22:46;1.20;99.90
18252;DHT22;26917;52.328;20.878;2022-12-07T18:25:49;1.30;99.90
18252;DHT22;26917;52.328;20.878;2022-12-07T18:28:26;1.90;99.90
18252;DHT22;26917;52.328;20.878;2022-12-07T18:31:26;1.50;99.90
18252;DHT22;26917;52.328;20.878;2022-12-07T18:34:04;1.20;99.90
18252;DHT22;26917;52.328;20.878;2022-12-07T18:37:00;1.10;99.90
18252;DHT22;26917;52.328;20.878;2022-12-07T18:39:44;1.40;99.90
18252;DHT22;26917;52.328;20.878;2022-12-07T18:42:23;1.40;99.90
18252;DHT22;26917;52.328;20.878;2022-12-07T18:44:59;1.10;99.90
18252;DHT22;26917;52.328;20.878;2022-12-07T18:47:30;1.30;99.90
18252;DHT22;26917;52.328;20.878;2022-12-07T18:50:00;0.40;99.90
18252;DHT22;26917;52.328;20.878;2022-12-07T18:52:30;1.20;99.90
18252;DHT22;26917;52.328;20.878;2022-12-07T18:54:59;1.10;99.90
18252;DHT22;26917;52.328;20.878;2022-12-07T18:57:31;0.40;99.90
18252;DHT22;26917;52.328;20.878;2022-12-07T19:00:04;1.10;99.90
18252;DHT22;26917;52.328;20.878;2022-12-07T19:02:34;0.90;99.90
18252;DHT22;26917;52.328;20.878;2022-12-07T19:05:08;1.50;99.90
18252;DHT22;26917;52.328;20.878;2022-12-07T19:07:39;0.90;99.90
18252;DHT22;26917;52.328;20.878;2022-12-07T19:10:08;0.90;99.90
18252;DHT22;26917;52.328;20.878;2022-12-07T19:12:39;0.90;99.90
18252;DHT22;26917;52.328;20.878;2022-12-07T19:15:11;1.10;99.90
18252;DHT22;26917;52.328;20.878;2022-12-07T19:17:40;0.90;99.90
18252;DHT22;26917;52.328;20.878;2022-12-07T19:20:12;0.90;99.90
18252;DHT22;26917;52.328;20.878;2022-12-07T19:22:41;1.00;99.90
18252;DHT22;26917;52.328;20.878;2022-12-07T19:25:16;0.90;99.90
18252;DHT22;26917;52.328;20.878;2022-12-07T19:27:45;1.00;99.90